sensor_id;sensor_type;location;lat;lon;timestamp;P1;durP1;ratioP1;P2;durP2;ratioP2
69310;SDS011;56430;48.154;16.458;2024-02-26T00:01:31;5.53;;;1.20;;
69310;SDS011;56430;48.154;16.458;2024-02-26T00:04:01;4.00;;;1.20;;
69310;SDS011;56430;48.154;16.458;2024-02-26T00:06:28;6.43;;;1.20;;
69310;SDS011;56430;48.154;16.458;2024-02-26T00:08:56;5.38;;;1.20;;
69310;SDS011;56430;48.154;16.458;2024-02-26T00:11:23;6.85;;;1.20;;
69310;SDS011;56430;48.154;16.458;2024-02-26T00:13:50;2.78;;;0.93;;
69310;SDS011;56430;48.154;16.458;2024-02-26T00:16:18;3.57;;;1.03;;
69310;SDS011;56430;48.154;16.458;2024-02-26T00:18:45;5.75;;;1.80;;
69310;SDS011;56430;48.154;16.458;2024-02-26T00:21:14;5.75;;;1.42;;
69310;SDS011;56430;48.154;16.458;2024-02-26T00:23:42;4.75;;;1.50;;
69310;SDS011;56430;48.154;16.458;2024-02-26T00:26:09;7.28;;;1.92;;
69310;SDS011;56430;48.154;16.458;2024-02-26T00:28:37;5.60;;;2.27;;
69310;SDS011;56430;48.154;16.458;2024-02-26T00:31:04;9.43;;;2.38;;
69310;SDS011;56430;48.154;16.458;2024-02-26T00:33:32;5.53;;;2.00;;
69310;SDS011;56430;48.154;16.458;2024-02-26T00:35:59;12.68;;;2.60;;
69310;SDS011;56430;48.154;16.458;2024-02-26T00:38:28;6.32;;;2.22;;
69310;SDS011;56430;48.154;16.458;2024-02-26T00:40:56;5.37;;;2.27;;
69310;SDS011;56430;48.154;16.458;2024-02-26T00:43:23;8.25;;;2.53;;
69310;SDS011;56430;48.154;16.458;2024-02-26T00:45:51;8.60;;;2.42;;
69310;SDS011;56430;48.154;16.458;2024-02-26T00:48:19;6.60;;;2.15;;
69310;SDS011;56430;48.154;16.458;2024-02-26T00:50:46;6.25;;;2.35;;
69310;SDS011;56430;48.154;16.458;2024-02-26T00:53:13;8.03;;;2.70;;
69310;SDS011;56430;48.154;16.458;2024-02-26T00:55:42;9.40;;;2.50;;
69310;SDS011;56430;48.154;16.458;2024-02-26T00:58:10;5.05;;;1.77;;
69310;SDS011;56430;48.154;16.458;2024-02-26T01:00:37;6.90;;;2.30;;
69310;SDS011;56430;48.154;16.458;2024-02-26T01:03:04;6.00;;;2.20;;
69310;SDS011;56430;48.154;16.458;2024-02-26T01:05:32;5.83;;;2.43;;
69310;SDS011;56430;48.154;16.458;2024-02-26T01:08:00;6.97;;;2.10;;
69310;SDS011;56430;48.154;16.458;2024-02-26T01:10:28;6.10;;;2.00;;
69310;SDS011;56430;48.154;16.458;2024-02-26T01:12:57;6.28;;;2.40;;
69310;SDS011;56430;48.154;16.458;2024-02-26T01:15:25;6.70;;;2.50;;
69310;SDS011;56430;48.154;16.458;2024-02-26T01:17:53;7.95;;;2.20;;
69310;SDS011;56430;48.154;16.458;2024-02-26T01:20:20;6.53;;;2.17;;
69310;SDS011;56430;48.154;16.458;2024-02-26T01:22:48;8.02;;;1.88;;
69310;SDS011;56430;48.154;16.458;2024-02-26T01:25:15;6.20;;;2.08;;
69310;SDS011;56430;48.154;16.458;2024-02-26T01:27:44;10.38;;;2.33;;
69310;SDS011;56430;48.154;16.458;2024-02-26T01:30:12;6.70;;;1.73;;
69310;SDS011;56430;48.154;16.458;2024-02-26T01:32:41;10.68;;;2.30;;
69310;SDS011;56430;48.154;16.458;2024-02-26T01:35:09;7.18;;;2.17;;
69310;SDS011;56430;48.154;16.458;2024-02-26T01:37:37;9.43;;;2.35;;
69310;SDS011;56430;48.154;16.458;2024-02-26T01:40:06;7.00;;;1.90;;
69310;SDS011;56430;48.154;16.458;2024-02-26T01:42:36;5.90;;;1.87;;
69310;SDS011;56430;48.154;16.458;2024-02-26T01:45:05;7.00;;;2.08;;
69310;SDS011;56430;48.154;16.458;2024-02-26T01:47:35;7.88;;;2.05;;
69310;SDS011;56430;48.154;16.458;2024-02-26T01:50:02;4.72;;;1.75;;
69310;SDS011;56430;48.154;16.458;2024-02-26T01:52:30;4.80;;;1.88;;
69310;SDS011;56430;48.154;16.458;2024-02-26T01:54:58;5.17;;;1.80;;
69310;SDS011;56430;48.154;16.458;2024-02-26T01:57:27;7.00;;;1.73;;
69310;SDS011;56430;48.154;16.458;2024-02-26T01:59:54;5.60;;;1.50;;
69310;SDS011;56430;48.154;16.458;2024-02-26T02:02:22;7.82;;;1.67;;
69310;SDS011;56430;48.154;16.458;2024-02-26T02:04:51;4.95;;;1.42;;
69310;SDS011;56430;48.154;16.458;2024-02-26T02:07:19;4.97;;;1.53;;
69310;SDS011;56430;48.154;16.458;2024-02-26T02:09:48;3.78;;;1.38;;
69310;SDS011;56430;48.154;16.458;2024-02-26T02:12:16;6.38;;;1.60;;
69310;SDS011;56430;48.154;16.458;2024-02-26T02:14:43;5.78;;;1.60;;
69310;SDS011;56430;48.154;16.458;2024-02-26T02:17:10;5.35;;;1.42;;
69310;SDS011;56430;48.154;16.458;2024-02-26T02:19:38;4.77;;;1.50;;
69310;SDS011;56430;48.154;16.458;2024-02-26T02:22:07;7.97;;;1.90;;
69310;SDS011;56430;48.154;16.458;2024-02-26T02:24:34;5.90;;;1.48;;
69310;SDS011;56430;48.154;16.458;2024-02-26T02:27:02;4.90;;;1.60;;
69310;SDS011;56430;48.154;16.458;2024-02-26T02:29:30;5.25;;;1.58;;
69310;SDS011;56430;48.154;16.458;2024-02-26T02:31:58;6.43;;;1.40;;
69310;SDS011;56430;48.154;16.458;2024-02-26T02:34:26;4.03;;;1.35;;
69310;SDS011;56430;48.154;16.458;2024-02-26T02:36:54;3.97;;;1.25;;
69310;SDS011;56430;48.154;16.458;2024-02-26T02:39:23;5.70;;;1.25;;
69310;SDS011;56430;48.154;16.458;2024-02-26T02:41:50;6.47;;;1.23;;
69310;SDS011;56430;48.154;16.458;2024-02-26T02:44:17;6.07;;;1.10;;
69310;SDS011;56430;48.154;16.458;2024-02-26T02:46:45;4.25;;;1.33;;
69310;SDS011;56430;48.154;16.458;2024-02-26T02:49:12;4.28;;;1.20;;
69310;SDS011;56430;48.154;16.458;2024-02-26T02:51:40;3.78;;;1.35;;
69310;SDS011;56430;48.154;16.458;2024-02-26T02:54:07;4.85;;;1.67;;
69310;SDS011;56430;48.154;16.458;2024-02-26T02:56:36;5.93;;;1.40;;
69310;SDS011;56430;48.154;16.458;2024-02-26T02:59:03;5.15;;;1.55;;
69310;SDS011;56430;48.154;16.458;2024-02-26T03:01:31;4.00;;;1.33;;
69310;SDS011;56430;48.154;16.458;2024-02-26T03:03:58;5.45;;;1.67;;
69310;SDS011;56430;48.154;16.458;2024-02-26T03:06:25;4.03;;;1.40;;
69310;SDS011;56430;48.154;16.458;2024-02-26T03:08:54;4.90;;;1.30;;
69310;SDS011;56430;48.154;16.458;2024-02-26T03:11:21;5.60;;;1.33;;
69310;SDS011;56430;48.154;16.458;2024-02-26T03:13:50;5.43;;;1.85;;
69310;SDS011;56430;48.154;16.458;2024-02-26T03:16:18;6.30;;;1.38;;
69310;SDS011;56430;48.154;16.458;2024-02-26T03:18:45;5.20;;;1.65;;
69310;SDS011;56430;48.154;16.458;2024-02-26T03:21:12;3.33;;;1.43;;
69310;SDS011;56430;48.154;16.458;2024-02-26T03:23:40;6.25;;;1.88;;
69310;SDS011;56430;48.154;16.458;2024-02-26T03:26:07;4.15;;;1.60;;
69310;SDS011;56430;48.154;16.458;2024-02-26T03:28:39;6.60;;;1.98;;
69310;SDS011;56430;48.154;16.458;2024-02-26T03:31:08;3.67;;;1.15;;
69310;SDS011;56430;48.154;16.458;2024-02-26T03:33:36;4.50;;;1.70;;
69310;SDS011;56430;48.154;16.458;2024-02-26T03:36:03;4.10;;;1.25;;
69310;SDS011;56430;48.154;16.458;2024-02-26T03:38:33;7.95;;;1.75;;
69310;SDS011;56430;48.154;16.458;2024-02-26T03:41:00;4.93;;;1.55;;
69310;SDS011;56430;48.154;16.458;2024-02-26T03:43:28;9.05;;;2.28;;
69310;SDS011;56430;48.154;16.458;2024-02-26T03:45:55;7.80;;;1.93;;
69310;SDS011;56430;48.154;16.458;2024-02-26T03:48:24;7.35;;;1.92;;
69310;SDS011;56430;48.154;16.458;2024-02-26T03:50:51;3.97;;;1.58;;
69310;SDS011;56430;48.154;16.458;2024-02-26T03:53:19;4.60;;;1.55;;
69310;SDS011;56430;48.154;16.458;2024-02-26T03:55:46;6.95;;;1.83;;
69310;SDS011;56430;48.154;16.458;2024-02-26T03:58:13;7.20;;;2.00;;
69310;SDS011;56430;48.154;16.458;2024-02-26T04:00:42;4.00;;;1.45;;
69310;SDS011;56430;48.154;16.458;2024-02-26T04:03:09;5.97;;;1.70;;
69310;SDS011;56430;48.154;16.458;2024-02-26T04:05:37;8.70;;;1.92;;
69310;SDS011;56430;48.154;16.458;2024-02-26T04:08:04;6.70;;;2.25;;
69310;SDS011;56430;48.154;16.458;2024-02-26T04:10:32;9.87;;;2.33;;
69310;SDS011;56430;48.154;16.458;2024-02-26T04:13:03;12.00;;;2.45;;
69310;SDS011;56430;48.154;16.458;2024-02-26T04:15:31;7.22;;;2.30;;
69310;SDS011;56430;48.154;16.458;2024-02-26T04:17:58;6.90;;;2.05;;
69310;SDS011;56430;48.154;16.458;2024-02-26T04:20:25;6.45;;;2.15;;
69310;SDS011;56430;48.154;16.458;2024-02-26T04:22:54;6.07;;;2.20;;
69310;SDS011;56430;48.154;16.458;2024-02-26T04:25:21;5.60;;;1.92;;
69310;SDS011;56430;48.154;16.458;2024-02-26T04:27:48;6.95;;;2.80;;
69310;SDS011;56430;48.154;16.458;2024-02-26T04:30:15;5.45;;;1.98;;
69310;SDS011;56430;48.154;16.458;2024-02-26T04:32:43;7.50;;;2.70;;
69310;SDS011;56430;48.154;16.458;2024-02-26T04:35:10;7.53;;;2.70;;
69310;SDS011;56430;48.154;16.458;2024-02-26T04:37:37;8.63;;;3.10;;
69310;SDS011;56430;48.154;16.458;2024-02-26T04:40:07;7.82;;;3.88;;
69310;SDS011;56430;48.154;16.458;2024-02-26T04:42:34;11.23;;;4.53;;
69310;SDS011;56430;48.154;16.458;2024-02-26T04:45:02;10.20;;;4.25;;
69310;SDS011;56430;48.154;16.458;2024-02-26T04:47:29;7.83;;;3.63;;
69310;SDS011;56430;48.154;16.458;2024-02-26T04:49:56;8.70;;;3.30;;
69310;SDS011;56430;48.154;16.458;2024-02-26T04:52:23;11.98;;;4.82;;
69310;SDS011;56430;48.154;16.458;2024-02-26T04:54:50;8.57;;;3.60;;
69310;SDS011;56430;48.154;16.458;2024-02-26T04:57:19;8.90;;;3.80;;
69310;SDS011;56430;48.154;16.458;2024-02-26T04:59:46;9.70;;;3.73;;
69310;SDS011;56430;48.154;16.458;2024-02-26T05:02:13;6.68;;;2.10;;
69310;SDS011;56430;48.154;16.458;2024-02-26T05:04:40;9.07;;;3.92;;
69310;SDS011;56430;48.154;16.458;2024-02-26T05:07:08;6.97;;;3.17;;
69310;SDS011;56430;48.154;16.458;2024-02-26T05:09:35;6.65;;;2.75;;
69310;SDS011;56430;48.154;16.458;2024-02-26T05:12:02;4.80;;;1.43;;
69310;SDS011;56430;48.154;16.458;2024-02-26T05:14:31;8.77;;;3.30;;
69310;SDS011;56430;48.154;16.458;2024-02-26T05:16:58;6.70;;;2.53;;
69310;SDS011;56430;48.154;16.458;2024-02-26T05:19:25;5.38;;;2.40;;
69310;SDS011;56430;48.154;16.458;2024-02-26T05:21:52;7.72;;;2.58;;
69310;SDS011;56430;48.154;16.458;2024-02-26T05:24:19;8.73;;;3.30;;
69310;SDS011;56430;48.154;16.458;2024-02-26T05:26:48;9.70;;;2.70;;
69310;SDS011;56430;48.154;16.458;2024-02-26T05:29:15;8.50;;;3.40;;
69310;SDS011;56430;48.154;16.458;2024-02-26T05:31:43;7.32;;;2.67;;
69310;SDS011;56430;48.154;16.458;2024-02-26T05:34:10;8.68;;;2.78;;
69310;SDS011;56430;48.154;16.458;2024-02-26T05:36:38;8.73;;;3.00;;
69310;SDS011;56430;48.154;16.458;2024-02-26T05:39:04;7.75;;;3.53;;
69310;SDS011;56430;48.154;16.458;2024-02-26T05:41:32;7.28;;;3.30;;
69310;SDS011;56430;48.154;16.458;2024-02-26T05:43:59;6.82;;;3.08;;
69310;SDS011;56430;48.154;16.458;2024-02-26T05:46:26;10.38;;;3.65;;
69310;SDS011;56430;48.154;16.458;2024-02-26T05:48:55;10.40;;;3.30;;
69310;SDS011;56430;48.154;16.458;2024-02-26T05:51:22;8.35;;;2.97;;
69310;SDS011;56430;48.154;16.458;2024-02-26T05:53:49;6.88;;;2.75;;
69310;SDS011;56430;48.154;16.458;2024-02-26T05:56:19;7.93;;;2.60;;
69310;SDS011;56430;48.154;16.458;2024-02-26T05:58:47;8.20;;;2.72;;
69310;SDS011;56430;48.154;16.458;2024-02-26T06:01:15;7.07;;;2.60;;
69310;SDS011;56430;48.154;16.458;2024-02-26T06:03:43;6.05;;;1.98;;
69310;SDS011;56430;48.154;16.458;2024-02-26T06:06:11;7.07;;;2.65;;
69310;SDS011;56430;48.154;16.458;2024-02-26T06:08:40;10.30;;;2.70;;
69310;SDS011;56430;48.154;16.458;2024-02-26T06:11:07;8.20;;;3.10;;
69310;SDS011;56430;48.154;16.458;2024-02-26T06:13:34;5.43;;;2.00;;
69310;SDS011;56430;48.154;16.458;2024-02-26T06:16:02;8.77;;;2.90;;
69310;SDS011;56430;48.154;16.458;2024-02-26T06:18:29;8.45;;;2.67;;
69310;SDS011;56430;48.154;16.458;2024-02-26T06:20:57;10.90;;;3.22;;
69310;SDS011;56430;48.154;16.458;2024-02-26T06:23:26;7.93;;;3.20;;
69310;SDS011;56430;48.154;16.458;2024-02-26T06:25:53;8.20;;;3.20;;
69310;SDS011;56430;48.154;16.458;2024-02-26T06:28:20;7.50;;;3.08;;
69310;SDS011;56430;48.154;16.458;2024-02-26T06:30:47;7.80;;;2.67;;
69310;SDS011;56430;48.154;16.458;2024-02-26T06:33:16;7.80;;;2.92;;
69310;SDS011;56430;48.154;16.458;2024-02-26T06:35:43;8.95;;;3.40;;
69310;SDS011;56430;48.154;16.458;2024-02-26T06:38:10;7.03;;;3.20;;
69310;SDS011;56430;48.154;16.458;2024-02-26T06:40:40;10.73;;;3.13;;
69310;SDS011;56430;48.154;16.458;2024-02-26T06:43:07;7.63;;;3.15;;
69310;SDS011;56430;48.154;16.458;2024-02-26T06:45:34;9.52;;;2.75;;
69310;SDS011;56430;48.154;16.458;2024-02-26T06:48:02;8.18;;;2.97;;
69310;SDS011;56430;48.154;16.458;2024-02-26T06:50:29;9.60;;;3.00;;
69310;SDS011;56430;48.154;16.458;2024-02-26T06:52:56;7.28;;;2.83;;
69310;SDS011;56430;48.154;16.458;2024-02-26T06:55:23;9.13;;;2.80;;
69310;SDS011;56430;48.154;16.458;2024-02-26T06:57:51;4.68;;;2.10;;
69310;SDS011;56430;48.154;16.458;2024-02-26T07:00:19;6.18;;;2.60;;
69310;SDS011;56430;48.154;16.458;2024-02-26T07:02:46;6.50;;;2.23;;
69310;SDS011;56430;48.154;16.458;2024-02-26T07:05:13;8.05;;;2.63;;
69310;SDS011;56430;48.154;16.458;2024-02-26T07:07:40;6.15;;;2.35;;
69310;SDS011;56430;48.154;16.458;2024-02-26T07:10:08;7.80;;;2.85;;
69310;SDS011;56430;48.154;16.458;2024-02-26T07:12:37;6.38;;;2.72;;
69310;SDS011;56430;48.154;16.458;2024-02-26T07:15:06;5.90;;;2.40;;
69310;SDS011;56430;48.154;16.458;2024-02-26T07:17:34;7.63;;;2.80;;
69310;SDS011;56430;48.154;16.458;2024-02-26T07:20:01;8.43;;;3.45;;
69310;SDS011;56430;48.154;16.458;2024-02-26T07:22:30;7.80;;;2.95;;
69310;SDS011;56430;48.154;16.458;2024-02-26T07:24:57;6.63;;;3.10;;
69310;SDS011;56430;48.154;16.458;2024-02-26T07:27:24;9.37;;;3.50;;
69310;SDS011;56430;48.154;16.458;2024-02-26T07:29:51;7.05;;;2.97;;
69310;SDS011;56430;48.154;16.458;2024-02-26T07:32:19;6.82;;;3.35;;
69310;SDS011;56430;48.154;16.458;2024-02-26T07:34:48;6.75;;;3.20;;
69310;SDS011;56430;48.154;16.458;2024-02-26T07:37:15;9.10;;;4.05;;
69310;SDS011;56430;48.154;16.458;2024-02-26T07:39:42;7.97;;;3.37;;
69310;SDS011;56430;48.154;16.458;2024-02-26T07:42:09;7.20;;;3.30;;
69310;SDS011;56430;48.154;16.458;2024-02-26T07:44:37;8.63;;;3.40;;
69310;SDS011;56430;48.154;16.458;2024-02-26T07:47:04;6.97;;;3.40;;
69310;SDS011;56430;48.154;16.458;2024-02-26T07:49:32;8.35;;;3.90;;
69310;SDS011;56430;48.154;16.458;2024-02-26T07:51:59;8.87;;;3.77;;
69310;SDS011;56430;48.154;16.458;2024-02-26T07:54:26;8.10;;;3.83;;
69310;SDS011;56430;48.154;16.458;2024-02-26T07:56:54;9.32;;;3.97;;
69310;SDS011;56430;48.154;16.458;2024-02-26T07:59:21;7.35;;;3.30;;
69310;SDS011;56430;48.154;16.458;2024-02-26T08:01:49;7.60;;;3.53;;
69310;SDS011;56430;48.154;16.458;2024-02-26T08:04:17;7.23;;;3.70;;
69310;SDS011;56430;48.154;16.458;2024-02-26T08:06:45;6.82;;;3.50;;
69310;SDS011;56430;48.154;16.458;2024-02-26T08:09:12;6.90;;;3.60;;
69310;SDS011;56430;48.154;16.458;2024-02-26T08:11:40;9.20;;;3.70;;
69310;SDS011;56430;48.154;16.458;2024-02-26T08:14:07;8.27;;;3.90;;
69310;SDS011;56430;48.154;16.458;2024-02-26T08:16:34;5.83;;;3.07;;
69310;SDS011;56430;48.154;16.458;2024-02-26T08:19:01;8.65;;;3.67;;
69310;SDS011;56430;48.154;16.458;2024-02-26T08:21:28;7.97;;;3.30;;
69310;SDS011;56430;48.154;16.458;2024-02-26T08:23:57;6.35;;;3.35;;
69310;SDS011;56430;48.154;16.458;2024-02-26T08:26:24;9.38;;;3.13;;
69310;SDS011;56430;48.154;16.458;2024-02-26T08:28:51;6.37;;;3.20;;
69310;SDS011;56430;48.154;16.458;2024-02-26T08:31:20;6.15;;;3.00;;
69310;SDS011;56430;48.154;16.458;2024-02-26T08:33:49;6.03;;;2.92;;
69310;SDS011;56430;48.154;16.458;2024-02-26T08:36:16;6.75;;;3.22;;
69310;SDS011;56430;48.154;16.458;2024-02-26T08:38:43;7.97;;;3.00;;
69310;SDS011;56430;48.154;16.458;2024-02-26T08:41:11;5.77;;;2.30;;
69310;SDS011;56430;48.154;16.458;2024-02-26T08:43:39;6.65;;;2.38;;
69310;SDS011;56430;48.154;16.458;2024-02-26T08:46:08;6.82;;;2.80;;
69310;SDS011;56430;48.154;16.458;2024-02-26T08:48:35;6.60;;;3.03;;
69310;SDS011;56430;48.154;16.458;2024-02-26T08:51:04;8.93;;;2.88;;
69310;SDS011;56430;48.154;16.458;2024-02-26T08:53:32;6.10;;;2.40;;
69310;SDS011;56430;48.154;16.458;2024-02-26T08:55:59;5.75;;;2.30;;
69310;SDS011;56430;48.154;16.458;2024-02-26T08:58:28;7.25;;;2.40;;
69310;SDS011;56430;48.154;16.458;2024-02-26T09:00:55;4.57;;;2.00;;
69310;SDS011;56430;48.154;16.458;2024-02-26T09:03:22;5.20;;;2.17;;
69310;SDS011;56430;48.154;16.458;2024-02-26T09:05:50;4.87;;;2.43;;
69310;SDS011;56430;48.154;16.458;2024-02-26T09:08:17;5.00;;;2.10;;
69310;SDS011;56430;48.154;16.458;2024-02-26T09:10:44;8.95;;;2.17;;
69310;SDS011;56430;48.154;16.458;2024-02-26T09:13:11;4.72;;;1.67;;
69310;SDS011;56430;48.154;16.458;2024-02-26T09:15:40;3.95;;;1.67;;
69310;SDS011;56430;48.154;16.458;2024-02-26T09:18:07;6.67;;;2.00;;
69310;SDS011;56430;48.154;16.458;2024-02-26T09:20:34;6.22;;;2.10;;
69310;SDS011;56430;48.154;16.458;2024-02-26T09:23:01;4.63;;;1.83;;
69310;SDS011;56430;48.154;16.458;2024-02-26T09:25:29;5.03;;;2.10;;
69310;SDS011;56430;48.154;16.458;2024-02-26T09:27:56;4.50;;;1.80;;
69310;SDS011;56430;48.154;16.458;2024-02-26T09:30:23;6.37;;;2.10;;
69310;SDS011;56430;48.154;16.458;2024-02-26T09:32:52;4.50;;;1.60;;
69310;SDS011;56430;48.154;16.458;2024-02-26T09:35:19;4.28;;;1.60;;
69310;SDS011;56430;48.154;16.458;2024-02-26T09:37:46;5.43;;;1.73;;
69310;SDS011;56430;48.154;16.458;2024-02-26T09:40:14;4.97;;;1.92;;
69310;SDS011;56430;48.154;16.458;2024-02-26T09:42:42;6.20;;;1.90;;
69310;SDS011;56430;48.154;16.458;2024-02-26T09:45:11;5.32;;;2.22;;
69310;SDS011;56430;48.154;16.458;2024-02-26T09:47:41;4.43;;;1.70;;
69310;SDS011;56430;48.154;16.458;2024-02-26T09:50:10;4.75;;;1.52;;
69310;SDS011;56430;48.154;16.458;2024-02-26T09:52:39;5.60;;;1.60;;
69310;SDS011;56430;48.154;16.458;2024-02-26T09:55:08;4.50;;;1.30;;
69310;SDS011;56430;48.154;16.458;2024-02-26T09:57:36;4.97;;;1.30;;
69310;SDS011;56430;48.154;16.458;2024-02-26T10:00:03;6.25;;;1.75;;
69310;SDS011;56430;48.154;16.458;2024-02-26T10:02:31;5.07;;;1.02;;
69310;SDS011;56430;48.154;16.458;2024-02-26T10:05:00;4.13;;;1.33;;
69310;SDS011;56430;48.154;16.458;2024-02-26T10:07:32;3.17;;;1.30;;
69310;SDS011;56430;48.154;16.458;2024-02-26T10:09:59;3.13;;;1.38;;
69310;SDS011;56430;48.154;16.458;2024-02-26T10:12:26;5.10;;;1.50;;
69310;SDS011;56430;48.154;16.458;2024-02-26T10:14:54;3.78;;;1.25;;
69310;SDS011;56430;48.154;16.458;2024-02-26T10:17:21;5.03;;;1.10;;
69310;SDS011;56430;48.154;16.458;2024-02-26T10:19:48;4.40;;;1.10;;
69310;SDS011;56430;48.154;16.458;2024-02-26T10:22:17;4.95;;;1.15;;
69310;SDS011;56430;48.154;16.458;2024-02-26T10:24:46;6.55;;;1.10;;
69310;SDS011;56430;48.154;16.458;2024-02-26T10:27:13;3.58;;;1.02;;
69310;SDS011;56430;48.154;16.458;2024-02-26T10:29:41;2.90;;;0.90;;
69310;SDS011;56430;48.154;16.458;2024-02-26T10:32:09;5.57;;;0.93;;
69310;SDS011;56430;48.154;16.458;2024-02-26T10:34:36;3.17;;;1.05;;
69310;SDS011;56430;48.154;16.458;2024-02-26T10:37:04;5.07;;;1.27;;
69310;SDS011;56430;48.154;16.458;2024-02-26T10:39:31;4.13;;;1.15;;
69310;SDS011;56430;48.154;16.458;2024-02-26T10:42:00;3.78;;;1.42;;
69310;SDS011;56430;48.154;16.458;2024-02-26T10:44:32;3.00;;;1.13;;
69310;SDS011;56430;48.154;16.458;2024-02-26T10:46:59;3.00;;;1.05;;
69310;SDS011;56430;48.154;16.458;2024-02-26T10:49:26;5.72;;;0.82;;
69310;SDS011;56430;48.154;16.458;2024-02-26T10:51:55;3.55;;;0.95;;
69310;SDS011;56430;48.154;16.458;2024-02-26T10:54:23;5.65;;;0.65;;
69310;SDS011;56430;48.154;16.458;2024-02-26T10:56:52;2.17;;;0.60;;
69310;SDS011;56430;48.154;16.458;2024-02-26T10:59:21;2.17;;;0.52;;
69310;SDS011;56430;48.154;16.458;2024-02-26T11:01:49;4.60;;;0.80;;
69310;SDS011;56430;48.154;16.458;2024-02-26T11:04:17;3.13;;;1.00;;
69310;SDS011;56430;48.154;16.458;2024-02-26T11:06:45;3.45;;;0.68;;
69310;SDS011;56430;48.154;16.458;2024-02-26T11:09:13;3.13;;;0.70;;
69310;SDS011;56430;48.154;16.458;2024-02-26T11:11:41;4.90;;;0.88;;
69310;SDS011;56430;48.154;16.458;2024-02-26T11:14:09;2.83;;;0.80;;
69310;SDS011;56430;48.154;16.458;2024-02-26T11:16:38;3.03;;;0.93;;
69310;SDS011;56430;48.154;16.458;2024-02-26T11:19:06;3.38;;;1.00;;
69310;SDS011;56430;48.154;16.458;2024-02-26T11:21:33;4.57;;;0.90;;
69310;SDS011;56430;48.154;16.458;2024-02-26T11:24:07;5.10;;;0.80;;
69310;SDS011;56430;48.154;16.458;2024-02-26T11:26:36;3.72;;;0.70;;
69310;SDS011;56430;48.154;16.458;2024-02-26T11:29:11;2.53;;;0.50;;
69310;SDS011;56430;48.154;16.458;2024-02-26T11:31:40;2.92;;;0.60;;
69310;SDS011;56430;48.154;16.458;2024-02-26T11:37:39;3.00;;;0.60;;
69310;SDS011;56430;48.154;16.458;2024-02-26T11:40:09;3.10;;;0.70;;
69310;SDS011;56430;48.154;16.458;2024-02-26T11:42:43;3.38;;;0.75;;
69310;SDS011;56430;48.154;16.458;2024-02-26T11:48:24;3.50;;;0.70;;
69310;SDS011;56430;48.154;16.458;2024-02-26T11:50:52;2.13;;;0.70;;
69310;SDS011;56430;48.154;16.458;2024-02-26T11:53:20;10.23;;;0.82;;
69310;SDS011;56430;48.154;16.458;2024-02-26T11:58:39;4.88;;;0.50;;
69310;SDS011;56430;48.154;16.458;2024-02-26T12:04:11;3.55;;;0.55;;
69310;SDS011;56430;48.154;16.458;2024-02-26T12:06:41;3.17;;;0.88;;
69310;SDS011;56430;48.154;16.458;2024-02-26T12:09:09;6.47;;;0.50;;
69310;SDS011;56430;48.154;16.458;2024-02-26T12:11:37;2.85;;;0.40;;
69310;SDS011;56430;48.154;16.458;2024-02-26T12:14:05;6.40;;;0.50;;
69310;SDS011;56430;48.154;16.458;2024-02-26T12:16:36;3.60;;;0.75;;
69310;SDS011;56430;48.154;16.458;2024-02-26T12:19:05;6.20;;;0.70;;
69310;SDS011;56430;48.154;16.458;2024-02-26T12:21:35;2.25;;;0.50;;
69310;SDS011;56430;48.154;16.458;2024-02-26T12:24:10;2.50;;;0.60;;
69310;SDS011;56430;48.154;16.458;2024-02-26T12:26:39;2.30;;;0.50;;
69310;SDS011;56430;48.154;16.458;2024-02-26T12:29:06;5.35;;;0.63;;
69310;SDS011;56430;48.154;16.458;2024-02-26T12:31:35;2.83;;;0.40;;
69310;SDS011;56430;48.154;16.458;2024-02-26T12:34:04;2.10;;;0.25;;
69310;SDS011;56430;48.154;16.458;2024-02-26T12:36:31;1.98;;;0.40;;
69310;SDS011;56430;48.154;16.458;2024-02-26T12:39:01;3.73;;;0.40;;
69310;SDS011;56430;48.154;16.458;2024-02-26T12:41:28;5.10;;;0.40;;
69310;SDS011;56430;48.154;16.458;2024-02-26T12:43:56;2.70;;;0.40;;
69310;SDS011;56430;48.154;16.458;2024-02-26T12:46:24;2.72;;;0.30;;
69310;SDS011;56430;48.154;16.458;2024-02-26T12:48:51;2.72;;;0.38;;
69310;SDS011;56430;48.154;16.458;2024-02-26T12:51:19;11.37;;;0.70;;
69310;SDS011;56430;48.154;16.458;2024-02-26T12:53:47;4.40;;;0.50;;
69310;SDS011;56430;48.154;16.458;2024-02-26T12:56:17;2.25;;;0.40;;
69310;SDS011;56430;48.154;16.458;2024-02-26T12:58:44;3.13;;;0.35;;
69310;SDS011;56430;48.154;16.458;2024-02-26T13:01:14;3.90;;;0.43;;
69310;SDS011;56430;48.154;16.458;2024-02-26T13:03:41;6.67;;;0.60;;
69310;SDS011;56430;48.154;16.458;2024-02-26T13:06:09;3.88;;;0.40;;
69310;SDS011;56430;48.154;16.458;2024-02-26T13:08:36;3.03;;;0.32;;
69310;SDS011;56430;48.154;16.458;2024-02-26T13:11:03;3.78;;;0.40;;
69310;SDS011;56430;48.154;16.458;2024-02-26T13:13:32;4.57;;;0.40;;
69310;SDS011;56430;48.154;16.458;2024-02-26T13:16:02;1.77;;;0.30;;
69310;SDS011;56430;48.154;16.458;2024-02-26T13:18:32;3.88;;;0.32;;
69310;SDS011;56430;48.154;16.458;2024-02-26T13:21:09;2.47;;;0.28;;
69310;SDS011;56430;48.154;16.458;2024-02-26T13:23:37;3.53;;;0.40;;
69310;SDS011;56430;48.154;16.458;2024-02-26T13:26:04;1.98;;;0.43;;
69310;SDS011;56430;48.154;16.458;2024-02-26T13:28:33;2.73;;;0.40;;
69310;SDS011;56430;48.154;16.458;2024-02-26T13:31:00;1.67;;;0.25;;
69310;SDS011;56430;48.154;16.458;2024-02-26T13:33:30;2.33;;;0.40;;
69310;SDS011;56430;48.154;16.458;2024-02-26T13:35:57;2.70;;;0.60;;
69310;SDS011;56430;48.154;16.458;2024-02-26T13:38:25;3.05;;;0.40;;
69310;SDS011;56430;48.154;16.458;2024-02-26T13:40:53;4.53;;;0.60;;
69310;SDS011;56430;48.154;16.458;2024-02-26T13:43:21;4.85;;;0.40;;
69310;SDS011;56430;48.154;16.458;2024-02-26T13:45:50;4.90;;;0.35;;
69310;SDS011;56430;48.154;16.458;2024-02-26T13:48:17;4.35;;;0.22;;
69310;SDS011;56430;48.154;16.458;2024-02-26T13:50:44;6.00;;;0.52;;
69310;SDS011;56430;48.154;16.458;2024-02-26T13:53:11;2.07;;;0.33;;
69310;SDS011;56430;48.154;16.458;2024-02-26T13:55:39;3.45;;;0.30;;
69310;SDS011;56430;48.154;16.458;2024-02-26T13:58:08;3.08;;;0.22;;
69310;SDS011;56430;48.154;16.458;2024-02-26T14:00:35;3.08;;;0.30;;
69310;SDS011;56430;48.154;16.458;2024-02-26T14:03:04;3.92;;;0.50;;
69310;SDS011;56430;48.154;16.458;2024-02-26T14:05:31;10.07;;;0.83;;
69310;SDS011;56430;48.154;16.458;2024-02-26T14:07:58;3.80;;;0.38;;
69310;SDS011;56430;48.154;16.458;2024-02-26T14:10:26;4.70;;;0.43;;
69310;SDS011;56430;48.154;16.458;2024-02-26T14:12:53;5.05;;;0.47;;
69310;SDS011;56430;48.154;16.458;2024-02-26T14:15:20;3.35;;;0.20;;
69310;SDS011;56430;48.154;16.458;2024-02-26T14:17:47;3.57;;;0.40;;
69310;SDS011;56430;48.154;16.458;2024-02-26T14:20:20;5.22;;;0.20;;
69310;SDS011;56430;48.154;16.458;2024-02-26T14:22:48;3.05;;;0.40;;
69310;SDS011;56430;48.154;16.458;2024-02-26T14:25:15;2.97;;;0.30;;
69310;SDS011;56430;48.154;16.458;2024-02-26T14:27:42;4.78;;;0.28;;
69310;SDS011;56430;48.154;16.458;2024-02-26T14:30:09;1.83;;;0.30;;
69310;SDS011;56430;48.154;16.458;2024-02-26T14:32:37;1.42;;;0.10;;
69310;SDS011;56430;48.154;16.458;2024-02-26T14:35:05;2.50;;;0.20;;
69310;SDS011;56430;48.154;16.458;2024-02-26T14:37:34;2.22;;;0.50;;
69310;SDS011;56430;48.154;16.458;2024-02-26T14:40:02;3.05;;;0.30;;
69310;SDS011;56430;48.154;16.458;2024-02-26T14:42:29;6.97;;;0.40;;
69310;SDS011;56430;48.154;16.458;2024-02-26T14:44:56;4.88;;;0.38;;
69310;SDS011;56430;48.154;16.458;2024-02-26T14:47:23;2.50;;;0.55;;
69310;SDS011;56430;48.154;16.458;2024-02-26T14:49:51;3.67;;;0.40;;